sensor_id;sensor_type;location;lat;lon;timestamp;pressure;altitude;pressure_sealevel;temperature
28803;BMP280;15949;55.656;37.422;2023-03-01T00:04:08;98601.41;;;-6.64
28803;BMP280;15949;55.656;37.422;2023-03-01T00:09:14;98606.63;;;-6.71
28803;BMP280;15949;55.656;37.422;2023-03-01T00:14:20;98604.34;;;-6.72
28803;BMP280;15949;55.656;37.422;2023-03-01T00:19:25;98607.56;;;-6.77
28803;BMP280;15949;55.656;37.422;2023-03-01T00:24:31;98601.50;;;-6.76
28803;BMP280;15949;55.656;37.422;2023-03-01T00:29:37;98595.03;;;-6.83
28803;BMP280;15949;55.656;37.422;2023-03-01T00:34:42;98612.00;;;-6.84
28803;BMP280;15949;55.656;37.422;2023-03-01T00:39:48;98606.94;;;-6.84
28803;BMP280;15949;55.656;37.422;2023-03-01T00:44:53;98600.53;;;-6.86
28803;BMP280;15949;55.656;37.422;2023-03-01T00:49:59;98586.34;;;-6.87
28803;BMP280;15949;55.656;37.422;2023-03-01T00:55:05;98585.28;;;-6.91
28803;BMP280;15949;55.656;37.422;2023-03-01T01:00:11;98597.34;;;-6.98
28803;BMP280;15949;55.656;37.422;2023-03-01T01:05:17;98590.06;;;-7.07
28803;BMP280;15949;55.656;37.422;2023-03-01T01:10:26;98589.31;;;-7.07
28803;BMP280;15949;55.656;37.422;2023-03-01T01:15:34;98574.25;;;-7.14
28803;BMP280;15949;55.656;37.422;2023-03-01T01:20:40;98584.84;;;-7.17
28803;BMP280;15949;55.656;37.422;2023-03-01T01:25:45;98582.75;;;-7.20
28803;BMP280;15949;55.656;37.422;2023-03-01T01:30:51;98588.84;;;-7.21
28803;BMP280;15949;55.656;37.422;2023-03-01T01:35:56;98591.47;;;-7.27
28803;BMP280;15949;55.656;37.422;2023-03-01T01:41:03;98595.91;;;-7.34
28803;BMP280;15949;55.656;37.422;2023-03-01T01:46:31;98598.56;;;-7.41
28803;BMP280;15949;55.656;37.422;2023-03-01T01:51:40;98589.31;;;-7.47
28803;BMP280;15949;55.656;37.422;2023-03-01T01:57:01;98586.50;;;-7.51
28803;BMP280;15949;55.656;37.422;2023-03-01T02:02:08;98593.75;;;-7.54
28803;BMP280;15949;55.656;37.422;2023-03-01T02:07:17;98592.13;;;-7.60
28803;BMP280;15949;55.656;37.422;2023-03-01T02:12:23;98586.41;;;-7.67
28803;BMP280;15949;55.656;37.422;2023-03-01T02:17:30;98590.41;;;-7.71
28803;BMP280;15949;55.656;37.422;2023-03-01T02:22:37;98579.19;;;-7.75
28803;BMP280;15949;55.656;37.422;2023-03-01T02:33:07;98589.41;;;-7.82
28803;BMP280;15949;55.656;37.422;2023-03-01T02:38:13;98600.72;;;-7.85
28803;BMP280;15949;55.656;37.422;2023-03-01T02:43:19;98596.78;;;-7.92
28803;BMP280;15949;55.656;37.422;2023-03-01T02:48:28;98595.56;;;-7.90
28803;BMP280;15949;55.656;37.422;2023-03-01T02:53:49;98591.97;;;-7.94
28803;BMP280;15949;55.656;37.422;2023-03-01T02:58:58;98603.38;;;-7.91
28803;BMP280;15949;55.656;37.422;2023-03-01T03:04:11;98602.72;;;-7.98
28803;BMP280;15949;55.656;37.422;2023-03-01T03:09:22;98599.41;;;-7.99
28803;BMP280;15949;55.656;37.422;2023-03-01T03:14:27;98608.66;;;-8.04
28803;BMP280;15949;55.656;37.422;2023-03-01T03:19:33;98615.47;;;-8.05
28803;BMP280;15949;55.656;37.422;2023-03-01T03:24:38;98613.13;;;-8.18
28803;BMP280;15949;55.656;37.422;2023-03-01T03:29:44;98608.75;;;-8.23
28803;BMP280;15949;55.656;37.422;2023-03-01T03:34:49;98617.56;;;-8.25
28803;BMP280;15949;55.656;37.422;2023-03-01T03:39:55;98628.81;;;-8.28
28803;BMP280;15949;55.656;37.422;2023-03-01T03:45:01;98629.72;;;-8.34
28803;BMP280;15949;55.656;37.422;2023-03-01T03:50:07;98620.28;;;-8.38
28803;BMP280;15949;55.656;37.422;2023-03-01T03:55:12;98624.75;;;-8.40
28803;BMP280;15949;55.656;37.422;2023-03-01T04:00:20;98626.63;;;-8.47
28803;BMP280;15949;55.656;37.422;2023-03-01T04:05:27;98622.53;;;-8.48
28803;BMP280;15949;55.656;37.422;2023-03-01T04:15:40;98641.19;;;-8.49
28803;BMP280;15949;55.656;37.422;2023-03-01T04:20:46;98635.06;;;-8.53
28803;BMP280;15949;55.656;37.422;2023-03-01T04:25:54;98640.56;;;-8.56
28803;BMP280;15949;55.656;37.422;2023-03-01T04:31:08;98645.22;;;-8.60
28803;BMP280;15949;55.656;37.422;2023-03-01T04:36:25;98645.00;;;-8.58
28803;BMP280;15949;55.656;37.422;2023-03-01T04:41:30;98650.41;;;-8.55
28803;BMP280;15949;55.656;37.422;2023-03-01T04:46:36;98652.28;;;-8.50
28803;BMP280;15949;55.656;37.422;2023-03-01T04:51:42;98659.75;;;-8.55
28803;BMP280;15949;55.656;37.422;2023-03-01T04:56:48;98665.91;;;-8.51
28803;BMP280;15949;55.656;37.422;2023-03-01T05:01:55;98666.66;;;-8.51
28803;BMP280;15949;55.656;37.422;2023-03-01T05:07:01;98668.13;;;-8.43
28803;BMP280;15949;55.656;37.422;2023-03-01T05:12:06;98673.53;;;-8.28
28803;BMP280;15949;55.656;37.422;2023-03-01T06:37:06;98737.41;;;-6.08
28803;BMP280;15949;55.656;37.422;2023-03-01T06:42:11;98736.84;;;-5.93
28803;BMP280;15949;55.656;37.422;2023-03-01T06:47:17;98736.75;;;-5.98
28803;BMP280;15949;55.656;37.422;2023-03-01T06:52:23;98723.22;;;-5.54
28803;BMP280;15949;55.656;37.422;2023-03-01T06:57:28;98729.81;;;-5.14
28803;BMP280;15949;55.656;37.422;2023-03-01T07:02:34;98734.28;;;-4.78
28803;BMP280;15949;55.656;37.422;2023-03-01T07:07:40;98733.16;;;-4.87
28803;BMP280;15949;55.656;37.422;2023-03-01T07:12:45;98752.13;;;-4.68
28803;BMP280;15949;55.656;37.422;2023-03-01T07:17:51;98750.13;;;-4.66
28803;BMP280;15949;55.656;37.422;2023-03-01T07:22:57;98757.47;;;-4.96
28803;BMP280;15949;55.656;37.422;2023-03-01T07:28:03;98771.97;;;-5.13
28803;BMP280;15949;55.656;37.422;2023-03-01T07:33:09;98769.44;;;-5.52
28803;BMP280;15949;55.656;37.422;2023-03-01T07:38:15;98757.22;;;-5.55
28803;BMP280;15949;55.656;37.422;2023-03-01T07:43:20;98767.13;;;-4.93
28803;BMP280;15949;55.656;37.422;2023-03-01T07:48:26;98776.28;;;-4.43
28803;BMP280;15949;55.656;37.422;2023-03-01T07:53:33;98783.25;;;-4.34
28803;BMP280;15949;55.656;37.422;2023-03-01T07:58:41;98774.84;;;-4.34
28803;BMP280;15949;55.656;37.422;2023-03-01T08:03:48;98776.06;;;-4.05
28803;BMP280;15949;55.656;37.422;2023-03-01T08:08:53;98788.63;;;-3.98
28803;BMP280;15949;55.656;37.422;2023-03-01T08:14:03;98789.34;;;-3.71
28803;BMP280;15949;55.656;37.422;2023-03-01T08:19:11;98777.44;;;-3.61
28803;BMP280;15949;55.656;37.422;2023-03-01T08:24:16;98768.47;;;-3.68
28803;BMP280;15949;55.656;37.422;2023-03-01T08:29:22;98778.34;;;-3.30
28803;BMP280;15949;55.656;37.422;2023-03-01T08:34:29;98778.75;;;-3.53
28803;BMP280;15949;55.656;37.422;2023-03-01T08:39:36;98789.75;;;-3.37
28803;BMP280;15949;55.656;37.422;2023-03-01T08:44:42;98802.13;;;-3.09
28803;BMP280;15949;55.656;37.422;2023-03-01T08:49:49;98800.22;;;-2.77
28803;BMP280;15949;55.656;37.422;2023-03-01T08:54:54;98804.38;;;-2.45
28803;BMP280;15949;55.656;37.422;2023-03-01T09:00:00;98810.25;;;-2.14
28803;BMP280;15949;55.656;37.422;2023-03-01T09:05:06;98804.31;;;-1.44
28803;BMP280;15949;55.656;37.422;2023-03-01T09:10:11;98816.56;;;-1.51
28803;BMP280;15949;55.656;37.422;2023-03-01T09:15:17;98818.09;;;-2.66
28803;BMP280;15949;55.656;37.422;2023-03-01T09:20:23;98827.47;;;-3.39
28803;BMP280;15949;55.656;37.422;2023-03-01T09:25:28;98826.97;;;-3.78
28803;BMP280;15949;55.656;37.422;2023-03-01T09:30:34;98831.44;;;-3.53
28803;BMP280;15949;55.656;37.422;2023-03-01T09:35:40;98820.94;;;-3.15
28803;BMP280;15949;55.656;37.422;2023-03-01T09:40:51;98818.97;;;-3.50
28803;BMP280;15949;55.656;37.422;2023-03-01T09:46:02;98807.41;;;-3.68
28803;BMP280;15949;55.656;37.422;2023-03-01T09:51:17;98813.28;;;-2.58
28803;BMP280;15949;55.656;37.422;2023-03-01T10:02:21;98836.34;;;-1.08
28803;BMP280;15949;55.656;37.422;2023-03-01T10:07:47;98836.69;;;0.02
28803;BMP280;15949;55.656;37.422;2023-03-01T10:12:56;98833.50;;;-0.13
28803;BMP280;15949;55.656;37.422;2023-03-01T10:18:06;98843.78;;;-0.57
28803;BMP280;15949;55.656;37.422;2023-03-01T10:23:14;98842.53;;;-0.21
28803;BMP280;15949;55.656;37.422;2023-03-01T10:28:37;98834.13;;;-1.24
28803;BMP280;15949;55.656;37.422;2023-03-01T10:33:46;98850.81;;;-2.28
28803;BMP280;15949;55.656;37.422;2023-03-01T10:38:55;98836.53;;;-2.44
28803;BMP280;15949;55.656;37.422;2023-03-01T10:44:02;98846.75;;;-1.68
28803;BMP280;15949;55.656;37.422;2023-03-01T10:49:12;98840.56;;;-0.00
28803;BMP280;15949;55.656;37.422;2023-03-01T10:54:31;98839.56;;;-0.38
28803;BMP280;15949;55.656;37.422;2023-03-01T10:59:38;98842.97;;;-0.97
28803;BMP280;15949;55.656;37.422;2023-03-01T11:05:13;98842.13;;;-1.56
28803;BMP280;15949;55.656;37.422;2023-03-01T11:10:29;98848.53;;;-1.79
28803;BMP280;15949;55.656;37.422;2023-03-01T11:15:35;98841.59;;;-1.48
28803;BMP280;15949;55.656;37.422;2023-03-01T11:20:41;98844.38;;;-0.75
28803;BMP280;15949;55.656;37.422;2023-03-01T11:25:56;98835.63;;;-1.13
28803;BMP280;15949;55.656;37.422;2023-03-01T11:31:02;98829.38;;;-0.43
28803;BMP280;15949;55.656;37.422;2023-03-01T11:36:42;98843.97;;;-0.44
28803;BMP280;15949;55.656;37.422;2023-03-01T11:41:57;98844.69;;;-1.51
28803;BMP280;15949;55.656;37.422;2023-03-01T12:25:27;98863.81;;;-2.19
28803;BMP280;15949;55.656;37.422;2023-03-01T12:41:46;98860.94;;;-2.63
28803;BMP280;15949;55.656;37.422;2023-03-01T12:57:42;98874.03;;;-2.45
28803;BMP280;15949;55.656;37.422;2023-03-01T13:08:19;98891.34;;;-2.57
28803;BMP280;15949;55.656;37.422;2023-03-01T13:13:28;98874.91;;;-2.81
28803;BMP280;15949;55.656;37.422;2023-03-01T13:18:33;98880.13;;;-3.03
28803;BMP280;15949;55.656;37.422;2023-03-01T13:23:39;98891.22;;;-3.29
28803;BMP280;15949;55.656;37.422;2023-03-01T13:33:56;98873.97;;;-3.54
28803;BMP280;15949;55.656;37.422;2023-03-01T13:39:31;98865.75;;;-3.66
28803;BMP280;15949;55.656;37.422;2023-03-01T13:44:43;98861.19;;;-3.59
28803;BMP280;15949;55.656;37.422;2023-03-01T13:54:58;98850.00;;;-3.58
28803;BMP280;15949;55.656;37.422;2023-03-01T14:00:05;98847.66;;;-3.70
28803;BMP280;15949;55.656;37.422;2023-03-01T14:05:11;98837.88;;;-3.83
28803;BMP280;15949;55.656;37.422;2023-03-01T14:10:16;98839.34;;;-3.87
28803;BMP280;15949;55.656;37.422;2023-03-01T14:15:35;98830.16;;;-3.93
28803;BMP280;15949;55.656;37.422;2023-03-01T14:20:43;98825.84;;;-3.92
28803;BMP280;15949;55.656;37.422;2023-03-01T14:25:57;98816.91;;;-3.95
28803;BMP280;15949;55.656;37.422;2023-03-01T14:31:03;98818.78;;;-4.12
28803;BMP280;15949;55.656;37.422;2023-03-01T14:36:32;98810.19;;;-4.06
28803;BMP280;15949;55.656;37.422;2023-03-01T14:41:38;98806.59;;;-4.10
28803;BMP280;15949;55.656;37.422;2023-03-01T14:46:45;98815.38;;;-4.23
28803;BMP280;15949;55.656;37.422;2023-03-01T14:57:03;98809.31;;;-4.17
28803;BMP280;15949;55.656;37.422;2023-03-01T15:02:15;98807.47;;;-4.26
28803;BMP280;15949;55.656;37.422;2023-03-01T15:07:26;98816.06;;;-4.32
28803;BMP280;15949;55.656;37.422;2023-03-01T15:12:35;98804.59;;;-4.35
28803;BMP280;15949;55.656;37.422;2023-03-01T15:17:41;98817.06;;;-4.33
28803;BMP280;15949;55.656;37.422;2023-03-01T15:22:47;98814.53;;;-4.33
28803;BMP280;15949;55.656;37.422;2023-03-01T15:27:55;98809.44;;;-4.33
28803;BMP280;15949;55.656;37.422;2023-03-01T15:43:43;98805.25;;;-4.44
28803;BMP280;15949;55.656;37.422;2023-03-01T15:48:52;98808.09;;;-4.41
28803;BMP280;15949;55.656;37.422;2023-03-01T15:54:03;98803.22;;;-4.48
28803;BMP280;15949;55.656;37.422;2023-03-01T15:59:11;98803.22;;;-4.48
28803;BMP280;15949;55.656;37.422;2023-03-01T16:04:19;98792.75;;;-4.51
28803;BMP280;15949;55.656;37.422;2023-03-01T16:09:28;98792.03;;;-4.47
28803;BMP280;15949;55.656;37.422;2023-03-01T16:14:33;98800.72;;;-4.42
28803;BMP280;15949;55.656;37.422;2023-03-01T16:19:39;98795.41;;;-4.36
28803;BMP280;15949;55.656;37.422;2023-03-01T16:24:45;98797.72;;;-4.34
28803;BMP280;15949;55.656;37.422;2023-03-01T16:29:51;98800.22;;;-4.39
28803;BMP280;15949;55.656;37.422;2023-03-01T16:34:56;98807.81;;;-4.44
28803;BMP280;15949;55.656;37.422;2023-03-01T16:40:03;98791.38;;;-4.32
28803;BMP280;15949;55.656;37.422;2023-03-01T16:45:09;98788.88;;;-4.27
28803;BMP280;15949;55.656;37.422;2023-03-01T16:50:15;98785.34;;;-4.26
28803;BMP280;15949;55.656;37.422;2023-03-01T16:55:21;98780.31;;;-4.21
28803;BMP280;15949;55.656;37.422;2023-03-01T17:00:27;98779.75;;;-4.23
28803;BMP280;15949;55.656;37.422;2023-03-01T17:05:32;98777.47;;;-4.24
28803;BMP280;15949;55.656;37.422;2023-03-01T17:10:38;98769.81;;;-4.29
28803;BMP280;15949;55.656;37.422;2023-03-01T17:15:43;98751.47;;;-4.31
28803;BMP280;15949;55.656;37.422;2023-03-01T17:20:49;98753.97;;;-4.36
28803;BMP280;15949;55.656;37.422;2023-03-01T17:25:55;98753.19;;;-4.42
28803;BMP280;15949;55.656;37.422;2023-03-01T17:31:02;98759.53;;;-4.39
28803;BMP280;15949;55.656;37.422;2023-03-01T17:36:08;98754.66;;;-4.46
28803;BMP280;15949;55.656;37.422;2023-03-01T17:41:13;98744.78;;;-4.42
28803;BMP280;15949;55.656;37.422;2023-03-01T17:46:21;98749.59;;;-4.46
28803;BMP280;15949;55.656;37.422;2023-03-01T17:51:28;98754.94;;;-4.42
28803;BMP280;15949;55.656;37.422;2023-03-01T17:56:34;98749.59;;;-4.41
28803;BMP280;15949;55.656;37.422;2023-03-01T18:01:43;98736.16;;;-4.36
28803;BMP280;15949;55.656;37.422;2023-03-01T18:06:48;98728.25;;;-4.40
28803;BMP280;15949;55.656;37.422;2023-03-01T18:11:54;98732.78;;;-4.47
28803;BMP280;15949;55.656;37.422;2023-03-01T18:17:00;98727.13;;;-4.54
28803;BMP280;15949;55.656;37.422;2023-03-01T18:22:08;98718.25;;;-4.52
28803;BMP280;15949;55.656;37.422;2023-03-01T18:27:14;98725.13;;;-4.52
28803;BMP280;15949;55.656;37.422;2023-03-01T18:32:19;98717.22;;;-4.56
28803;BMP280;15949;55.656;37.422;2023-03-01T18:37:26;98722.50;;;-4.57
28803;BMP280;15949;55.656;37.422;2023-03-01T18:42:31;98711.41;;;-4.51
28803;BMP280;15949;55.656;37.422;2023-03-01T18:47:37;98709.09;;;-4.53
28803;BMP280;15949;55.656;37.422;2023-03-01T18:52:42;98711.63;;;-4.53
28803;BMP280;15949;55.656;37.422;2023-03-01T18:57:48;98708.56;;;-4.55
28803;BMP280;15949;55.656;37.422;2023-03-01T19:02:53;98710.16;;;-4.49
28803;BMP280;15949;55.656;37.422;2023-03-01T19:07:59;98702.53;;;-4.49
28803;BMP280;15949;55.656;37.422;2023-03-01T19:13:05;98697.94;;;-4.52
28803;BMP280;15949;55.656;37.422;2023-03-01T19:18:10;98703.53;;;-4.50
28803;BMP280;15949;55.656;37.422;2023-03-01T19:23:16;98700.47;;;-4.52
28803;BMP280;15949;55.656;37.422;2023-03-01T19:28:22;98691.84;;;-4.51
28803;BMP280;15949;55.656;37.422;2023-03-01T19:33:29;98697.38;;;-4.54
28803;BMP280;15949;55.656;37.422;2023-03-01T19:38:36;98686.75;;;-4.51
28803;BMP280;15949;55.656;37.422;2023-03-01T19:43:43;98667.47;;;-4.47
28803;BMP280;15949;55.656;37.422;2023-03-01T19:48:53;98672.00;;;-4.49
28803;BMP280;15949;55.656;37.422;2023-03-01T19:53:59;98670.97;;;-4.53
28803;BMP280;15949;55.656;37.422;2023-03-01T19:59:04;98661.81;;;-4.54
28803;BMP280;15949;55.656;37.422;2023-03-01T20:04:11;98654.72;;;-4.52
28803;BMP280;15949;55.656;37.422;2023-03-01T20:09:17;98658.81;;;-4.46
28803;BMP280;15949;55.656;37.422;2023-03-01T20:14:22;98665.81;;;-4.58
28803;BMP280;15949;55.656;37.422;2023-03-01T20:19:28;98666.81;;;-4.64
28803;BMP280;15949;55.656;37.422;2023-03-01T20:24:34;98659.91;;;-4.68
28803;BMP280;15949;55.656;37.422;2023-03-01T20:29:39;98652.28;;;-4.63
28803;BMP280;15949;55.656;37.422;2023-03-01T20:34:45;98635.81;;;-4.61
28803;BMP280;15949;55.656;37.422;2023-03-01T20:39:51;98639.84;;;-4.65
28803;BMP280;15949;55.656;37.422;2023-03-01T20:44:57;98641.41;;;-4.59
28803;BMP280;15949;55.656;37.422;2023-03-01T20:50:03;98633.22;;;-4.66
28803;BMP280;15949;55.656;37.422;2023-03-01T20:55:09;98632.94;;;-4.69
28803;BMP280;15949;55.656;37.422;2023-03-01T21:00:15;98636.13;;;-4.84
28803;BMP280;15949;55.656;37.422;2023-03-01T21:05:21;98626.66;;;-4.94
28803;BMP280;15949;55.656;37.422;2023-03-01T21:10:28;98626.84;;;-5.00
28803;BMP280;15949;55.656;37.422;2023-03-01T21:15:34;98626.84;;;-5.00
28803;BMP280;15949;55.656;37.422;2023-03-01T21:20:39;98636.94;;;-5.05
28803;BMP280;15949;55.656;37.422;2023-03-01T21:25:46;98641.00;;;-5.04
28803;BMP280;15949;55.656;37.422;2023-03-01T23:26:29;98688.94;;;-4.91
28803;BMP280;15949;55.656;37.422;2023-03-01T23:31:35;98663.31;;;-4.84
28803;BMP280;15949;55.656;37.422;2023-03-01T23:36:40;98654.69;;;-4.83
28803;BMP280;15949;55.656;37.422;2023-03-01T23:41:49;98693.69;;;-4.95
28803;BMP280;15949;55.656;37.422;2023-03-01T23:46:55;98674.63;;;-4.97
28803;BMP280;15949;55.656;37.422;2023-03-01T23:52:00;98669.13;;;-4.89
28803;BMP280;15949;55.656;37.422;2023-03-01T23:57:06;98668.06;;;-4.93
